createdAt,value
2023-08-16T00:04:43.326Z,53.67
2023-08-16T00:09:45.922Z,54.88
2023-08-16T00:14:48.830Z,55.79
2023-08-16T00:19:51.694Z,55.36
2023-08-16T00:24:54.250Z,56.00
2023-08-16T00:29:57.114Z,56.62
2023-08-16T00:34:59.760Z,56.54
2023-08-16T00:40:02.551Z,55.75
2023-08-16T00:45:06.985Z,55.76
2023-08-16T00:50:10.214Z,56.26
2023-08-16T00:55:13.435Z,56.43
2023-08-16T01:00:16.423Z,56.70
2023-08-16T01:05:19.132Z,57.21
2023-08-16T01:10:26.522Z,57.80
2023-08-16T01:15:33.566Z,57.06
2023-08-16T01:20:38.167Z,57.24
2023-08-16T01:25:49.556Z,56.85
2023-08-16T01:30:52.770Z,56.69
2023-08-16T01:35:55.480Z,56.76
2023-08-16T01:41:09.181Z,57.03
2023-08-16T01:46:12.726Z,58.26
2023-08-16T01:51:16.236Z,58.00
2023-08-16T01:56:18.935Z,57.91
2023-08-16T02:01:22.376Z,58.03
2023-08-16T02:06:26.088Z,58.56
2023-08-16T02:11:30.577Z,58.12
2023-08-16T02:16:33.877Z,58.82
2023-08-16T02:21:36.734Z,58.92
2023-08-16T02:26:39.273Z,59.18
2023-08-16T02:31:41.952Z,59.34
2023-08-16T02:36:44.519Z,59.74
2023-08-16T02:41:49.444Z,59.77
2023-08-16T02:46:53.850Z,60.09
2023-08-16T02:51:56.447Z,60.22
2023-08-16T02:56:59.061Z,60.25
2023-08-16T03:02:01.866Z,60.12
2023-08-16T03:07:04.499Z,60.77
2023-08-16T03:12:08.030Z,60.25
2023-08-16T03:17:10.572Z,60.18
2023-08-16T03:22:13.471Z,60.53
2023-08-16T03:27:16.590Z,60.98
2023-08-16T03:32:19.177Z,64.74
2023-08-16T03:37:22.244Z,67.24
2023-08-16T03:42:25.069Z,66.09
2023-08-16T03:47:28.098Z,64.10
2023-08-16T03:52:30.881Z,62.97
2023-08-16T03:57:33.390Z,61.76
2023-08-16T04:02:36.118Z,59.11
2023-08-16T04:07:39.953Z,58.61
2023-08-16T04:12:42.452Z,58.83
2023-08-16T04:17:45.083Z,59.52
2023-08-16T04:22:47.846Z,59.53
2023-08-16T04:27:50.577Z,59.46
2023-08-16T04:32:53.138Z,60.14
2023-08-16T04:37:55.688Z,60.43
2023-08-16T04:42:58.398Z,60.78
2023-08-16T04:48:01.003Z,61.08
2023-08-16T04:53:03.851Z,61.44
2023-08-16T04:58:06.478Z,61.08
2023-08-16T05:03:09.214Z,61.48
2023-08-16T05:08:12.004Z,64.07
2023-08-16T05:13:14.595Z,64.62
2023-08-16T05:18:17.347Z,62.79
2023-08-16T05:23:19.833Z,61.03
2023-08-16T05:28:23.030Z,57.92
2023-08-16T05:33:25.713Z,57.50
2023-08-16T05:38:28.382Z,56.57
2023-08-16T05:43:32.265Z,51.38
2023-08-16T05:48:35.229Z,45.10
2023-08-16T05:53:37.830Z,39.41
2023-08-16T05:58:40.375Z,36.16
2023-08-16T06:03:43.383Z,33.57
2023-08-16T06:08:45.919Z,31.83
2023-08-16T06:13:48.455Z,30.10
2023-08-16T06:18:53.584Z,29.26
2023-08-16T06:23:57.491Z,28.73
2023-08-16T06:29:00.022Z,27.75
2023-08-16T06:34:02.671Z,26.61
2023-08-16T06:39:05.437Z,25.87
2023-08-16T06:44:08.331Z,25.23
2023-08-16T06:49:11.051Z,24.94
2023-08-16T06:54:13.541Z,24.66
2023-08-16T06:59:16.820Z,24.33
2023-08-16T07:04:19.359Z,24.41
2023-08-16T07:09:23.669Z,24.38
2023-08-16T07:14:26.883Z,23.75
2023-08-16T07:19:29.712Z,23.68
2023-08-16T07:24:32.613Z,23.30
2023-08-16T07:29:35.135Z,23.24
2023-08-16T07:34:37.878Z,23.56
2023-08-16T07:39:41.414Z,23.94
2023-08-16T07:44:43.947Z,24.07
2023-08-16T07:49:46.664Z,24.57
2023-08-16T07:54:49.342Z,24.70
2023-08-16T07:59:52.260Z,25.49
2023-08-16T08:04:55.558Z,26.18
2023-08-16T08:09:59.203Z,26.89
2023-08-16T08:15:02.305Z,27.47
2023-08-16T08:20:06.928Z,28.08
2023-08-16T08:25:09.893Z,29.59
2023-08-16T08:30:13.180Z,30.22
2023-08-16T08:35:16.377Z,31.40
2023-08-16T08:40:21.924Z,31.98
2023-08-16T08:45:26.277Z,32.20
2023-08-16T08:50:30.013Z,32.85
2023-08-16T08:55:33.535Z,32.81
2023-08-16T09:00:38.539Z,33.01
2023-08-16T09:05:41.373Z,33.01
2023-08-16T09:10:44.796Z,32.51
2023-08-16T09:15:47.356Z,32.55
2023-08-16T09:20:50.673Z,32.29
2023-08-16T09:25:53.410Z,32.63
2023-08-16T09:30:56.014Z,32.74
2023-08-16T09:35:58.680Z,32.88
2023-08-16T09:41:01.648Z,32.72
2023-08-16T09:46:04.360Z,32.69
2023-08-16T09:51:11.962Z,32.49
2023-08-16T10:11:37.477Z,33.10
2023-08-16T10:16:41.481Z,33.06
2023-08-16T10:21:48.024Z,33.23
2023-08-16T10:26:52.135Z,32.98
2023-08-16T10:31:55.256Z,33.02
2023-08-16T10:36:58.649Z,33.29
2023-08-16T10:42:07.703Z,33.28
2023-08-16T10:47:12.972Z,33.34
2023-08-16T10:52:15.512Z,33.47
2023-08-16T10:57:25.487Z,33.38
2023-08-16T11:02:31.966Z,33.83
2023-08-16T11:07:34.684Z,33.81
2023-08-16T11:12:37.316Z,33.75
2023-08-16T11:17:47.050Z,32.89
2023-08-16T11:23:01.234Z,32.77
2023-08-16T11:28:05.143Z,32.82
2023-08-16T11:33:15.794Z,32.74
2023-08-16T11:38:18.959Z,33.05
2023-08-16T11:43:37.705Z,32.96
2023-08-16T11:48:40.672Z,33.01
2023-08-16T11:53:43.213Z,33.12
2023-08-16T11:58:48.045Z,33.02
2023-08-16T12:03:50.760Z,33.08
2023-08-16T12:08:55.655Z,32.79
2023-08-16T12:13:59.557Z,32.41
2023-08-16T12:19:02.494Z,32.13
2023-08-16T12:24:05.330Z,31.85
2023-08-16T12:29:08.005Z,31.58
2023-08-16T12:34:10.963Z,31.28
2023-08-16T12:39:13.683Z,31.37
2023-08-16T12:44:16.296Z,31.03
2023-08-16T12:49:18.872Z,31.56
2023-08-16T12:54:21.961Z,31.70
2023-08-16T12:59:30.696Z,31.64
2023-08-16T13:04:36.923Z,31.46
2023-08-16T13:14:46.922Z,31.23
2023-08-16T13:20:02.236Z,31.64
2023-08-16T13:30:46.336Z,31.99
2023-08-16T13:35:50.078Z,32.33
2023-08-16T13:40:54.016Z,32.74
2023-08-16T13:45:56.811Z,32.91
2023-08-16T13:50:59.577Z,32.86
2023-08-16T13:56:02.702Z,32.71
2023-08-16T14:01:05.272Z,32.57
2023-08-16T14:06:07.858Z,32.31
2023-08-16T14:11:10.417Z,32.07
2023-08-16T14:16:12.998Z,31.87
2023-08-16T14:21:15.862Z,32.32
2023-08-16T14:26:22.145Z,32.28
2023-08-16T14:31:25.204Z,32.09
2023-08-16T14:36:27.792Z,31.95
2023-08-16T14:41:31.132Z,31.91
2023-08-16T14:46:33.841Z,31.43
2023-08-16T14:51:36.785Z,31.12
2023-08-16T14:56:39.414Z,31.36
2023-08-16T15:01:42.536Z,31.16
2023-08-16T15:06:45.079Z,30.84
2023-08-16T15:11:47.617Z,30.78
2023-08-16T15:16:50.410Z,30.88
2023-08-16T15:21:52.941Z,31.35
2023-08-16T15:26:57.615Z,31.19
2023-08-16T15:32:00.319Z,31.32
2023-08-16T15:37:03.088Z,34.82
2023-08-16T15:42:06.627Z,36.53
2023-08-16T15:47:09.296Z,37.34
2023-08-16T15:52:13.034Z,39.19
2023-08-16T15:57:15.710Z,40.05
2023-08-16T16:02:18.341Z,40.93
2023-08-16T16:07:21.236Z,42.10
2023-08-16T16:12:24.133Z,42.12
2023-08-16T16:17:29.105Z,42.31
2023-08-16T16:22:32.218Z,42.66
2023-08-16T16:27:34.755Z,44.46
2023-08-16T16:32:37.413Z,44.68
2023-08-16T16:37:40.079Z,44.93
2023-08-16T16:42:47.378Z,46.22
2023-08-16T16:47:50.608Z,47.27
2023-08-16T16:52:53.211Z,48.00
2023-08-16T16:57:56.913Z,48.72
2023-08-16T17:03:02.792Z,49.29
2023-08-16T17:08:05.731Z,49.33
2023-08-16T17:13:08.327Z,50.30
2023-08-16T17:18:10.986Z,50.91
2023-08-16T17:23:13.935Z,51.72
2023-08-16T17:28:16.566Z,52.32
2023-08-16T17:33:19.569Z,53.51
2023-08-16T17:38:22.099Z,54.22
2023-08-16T17:43:25.053Z,55.10
2023-08-16T17:48:27.800Z,55.79
2023-08-16T17:53:30.535Z,56.42
2023-08-16T17:58:35.390Z,57.34
2023-08-16T18:03:38.058Z,57.33
2023-08-16T18:08:41.373Z,58.66
2023-08-16T18:13:44.002Z,59.37
2023-08-16T18:18:46.579Z,59.88
2023-08-16T18:23:49.961Z,60.27
2023-08-16T18:28:52.503Z,60.26
2023-08-16T18:33:55.303Z,61.84
2023-08-16T18:38:57.911Z,61.03
2023-08-16T18:44:00.854Z,59.40
2023-08-16T18:49:04.381Z,59.38
2023-08-16T18:54:07.020Z,60.14
2023-08-16T18:59:09.549Z,60.59
2023-08-16T19:04:12.262Z,62.97
2023-08-16T19:09:14.858Z,64.28
2023-08-16T19:14:17.499Z,63.57
2023-08-16T19:19:20.145Z,59.58
2023-08-16T19:24:22.788Z,59.99
2023-08-16T19:29:25.347Z,60.85
2023-08-16T19:34:28.325Z,63.28
2023-08-16T19:39:30.940Z,62.84
2023-08-16T19:44:33.535Z,65.02
2023-08-16T19:49:36.046Z,63.86
2023-08-16T19:54:38.873Z,61.47
2023-08-16T19:59:42.227Z,63.23
2023-08-16T20:04:44.752Z,63.06
2023-08-16T20:09:47.261Z,64.61
2023-08-16T20:14:50.213Z,62.53
2023-08-16T20:19:54.319Z,63.58
2023-08-16T20:24:56.868Z,65.28
2023-08-16T20:30:00.103Z,65.51
2023-08-16T20:35:03.060Z,64.51
2023-08-16T20:40:08.776Z,65.46
2023-08-16T20:45:14.976Z,65.22
2023-08-16T20:50:17.549Z,64.71
2023-08-16T20:55:20.342Z,65.98
2023-08-16T21:00:22.957Z,66.18
2023-08-16T21:05:25.524Z,65.93
2023-08-16T21:10:28.114Z,66.04
2023-08-16T21:15:30.767Z,65.88
2023-08-16T21:20:35.117Z,64.85
2023-08-16T21:25:37.844Z,64.13
2023-08-16T21:30:40.505Z,65.24
2023-08-16T21:35:43.265Z,65.84
2023-08-16T21:40:45.756Z,65.80
2023-08-16T21:45:48.406Z,65.02
2023-08-16T21:50:51.040Z,65.69
2023-08-16T21:55:53.774Z,65.72
2023-08-16T22:00:56.326Z,64.74
2023-08-16T22:06:04.168Z,64.84
2023-08-16T22:11:06.825Z,64.71
2023-08-16T22:16:09.365Z,65.09
2023-08-16T22:21:11.915Z,65.57
2023-08-16T22:26:15.840Z,66.03
2023-08-16T22:31:18.433Z,66.29
2023-08-16T22:36:22.078Z,65.71
2023-08-16T22:41:24.675Z,65.93
2023-08-16T22:46:27.318Z,65.32
2023-08-16T22:51:30.174Z,65.90
2023-08-16T22:56:32.754Z,66.04
2023-08-16T23:01:35.275Z,65.85
2023-08-16T23:06:37.835Z,64.94
2023-08-16T23:11:40.300Z,65.54
2023-08-16T23:16:42.880Z,65.90
2023-08-16T23:21:45.480Z,65.26
2023-08-16T23:26:48.040Z,65.18
2023-08-16T23:31:50.620Z,65.23
2023-08-16T23:36:53.569Z,65.33
2023-08-16T23:41:58.955Z,65.63
2023-08-16T23:47:01.893Z,65.35
2023-08-16T23:52:05.203Z,65.55
2023-08-16T23:57:07.811Z,65.38
